Time;durP1;ratioP1;P1;durP2;ratioP2;P2;SDS_P1;SDS_P2;PMS_P1;PMS_P2;Temp;Humidity;BMP_temperature;BMP_pressure;BME280_temperature;BME280_humidity;BME280_pressure;Samples;Min_cycle;Max_cycle;Signal;HPM_P1;HPM_P2
2023/03/13 00:00:28;;;;;;;15.30;2.13;;;;;;;;;;4972814;28;20030;-67
2023/03/13 00:02:53;;;;;;;10.63;2.20;;;;;;;;;;4973740;28;20510;-67
2023/03/13 00:05:18;;;;;;;17.03;2.70;;;;;;;;;;4971624;28;20027;-67
2023/03/13 00:07:43;;;;;;;9.95;2.13;;;;;;;;;;4971742;28;20035;-66
2023/03/13 00:10:08;;;;;;;10.88;2.15;;;;;;;;;;4973669;28;20434;-66
2023/03/13 00:12:34;;;;;;;10.23;2.05;;;;;;;;;;4973190;28;20034;-68
2023/03/13 00:14:59;;;;;;;15.25;2.35;;;;;;;;;;4971324;28;20466;-67
2023/03/13 00:17:24;;;;;;;12.85;2.25;;;;;;;;;;4972080;28;20027;-66
2023/03/13 00:19:49;;;;;;;9.38;2.38;;;;;;;;;;4974199;28;20054;-66
2023/03/13 00:22:15;;;;;;;10.18;2.25;;;;;;;;;;4976865;28;20533;-67
2023/03/13 00:24:40;;;;;;;10.38;1.88;;;;;;;;;;4976520;28;20030;-67
2023/03/13 00:27:05;;;;;;;10.80;2.05;;;;;;;;;;4979671;28;20035;-68
2023/03/13 00:29:31;;;;;;;9.80;1.90;;;;;;;;;;4978856;28;20027;-68
2023/03/13 00:31:56;;;;;;;13.52;2.47;;;;;;;;;;4972032;28;20109;-67
2023/03/13 00:34:22;;;;;;;10.77;2.27;;;;;;;;;;4972182;28;20019;-66
2023/03/13 00:36:47;;;;;;;10.68;2.22;;;;;;;;;;4972778;28;20034;-67
2023/03/13 00:39:13;;;;;;;8.85;1.85;;;;;;;;;;4973779;28;20498;-67
2023/03/13 00:41:38;;;;;;;10.30;2.10;;;;;;;;;;4972294;28;20031;-67
2023/03/13 00:44:03;;;;;;;10.60;2.20;;;;;;;;;;4971410;28;20019;-67
2023/03/13 00:46:28;;;;;;;12.37;2.27;;;;;;;;;;4967832;28;20486;-68
2023/03/13 00:48:54;;;;;;;9.68;2.22;;;;;;;;;;4970606;28;20029;-69
2023/03/13 00:51:20;;;;;;;11.63;2.10;;;;;;;;;;4971978;28;20029;-67
2023/03/13 00:53:45;;;;;;;11.13;2.45;;;;;;;;;;4969187;28;20019;-67
2023/03/13 00:56:11;;;;;;;13.77;2.28;;;;;;;;;;4969488;28;20022;-67
2023/03/13 00:58:38;;;;;;;13.52;2.30;;;;;;;;;;4971863;28;20050;-67
2023/03/13 01:01:06;;;;;;;9.02;2.10;;;;;;;;;;4970958;28;20029;-65
2023/03/13 01:03:31;;;;;;;12.85;2.58;;;;;;;;;;4968904;28;20019;-67
2023/03/13 01:05:57;;;;;;;13.70;2.13;;;;;;;;;;4970374;28;20123;-67
2023/03/13 01:08:23;;;;;;;11.25;2.00;;;;;;;;;;4972253;28;20042;-67
2023/03/13 01:10:48;;;;;;;17.33;2.77;;;;;;;;;;4972278;28;20030;-67
2023/03/13 01:13:13;;;;;;;15.43;2.20;;;;;;;;;;4971876;28;20386;-65
2023/03/13 01:15:38;;;;;;;13.18;2.30;;;;;;;;;;4967606;28;20059;-66
2023/03/13 01:18:03;;;;;;;10.05;1.65;;;;;;;;;;4971054;28;20031;-67
2023/03/13 01:20:29;;;;;;;15.47;2.03;;;;;;;;;;4970087;28;20089;-66
2023/03/13 01:22:54;;;;;;;8.93;1.60;;;;;;;;;;4971092;28;20549;-67
2023/03/13 01:25:19;;;;;;;14.75;2.60;;;;;;;;;;4970611;28;20030;-67
2023/03/13 01:27:45;;;;;;;13.95;2.40;;;;;;;;;;4972043;28;20462;-66
2023/03/13 01:30:10;;;;;;;12.05;2.00;;;;;;;;;;4970861;28;20065;-65
2023/03/13 01:32:35;;;;;;;11.90;2.35;;;;;;;;;;4971664;28;20034;-68
2023/03/13 01:35:00;;;;;;;12.73;2.07;;;;;;;;;;4970602;28;20034;-69
2023/03/13 01:37:25;;;;;;;12.80;2.13;;;;;;;;;;4969791;28;20043;-67
2023/03/13 01:39:51;;;;;;;12.20;1.90;;;;;;;;;;4970780;28;20126;-66
2023/03/13 01:42:16;;;;;;;14.55;2.35;;;;;;;;;;4970500;28;20390;-65
2023/03/13 01:44:54;;;;;;;12.60;1.88;;;;;;;;;;4962801;28;20027;-68
2023/03/13 01:47:19;;;;;;;;;;;;;;;;;;4970097;28;20030;-67
2023/03/13 01:49:45;;;;;;;9.70;1.73;;;;;;;;;;4970673;28;19937;-67
2023/03/13 01:52:15;;;;;;;11.00;2.20;;;;;;;;;;4968968;28;20105;-65
2023/03/13 01:54:44;;;;;;;12.35;2.00;;;;;;;;;;4968922;28;20474;-65
2023/03/13 01:57:11;;;;;;;14.85;1.92;;;;;;;;;;4969298;28;20402;-66
2023/03/13 01:59:40;;;;;;;11.45;1.90;;;;;;;;;;4969051;28;20042;-67
2023/03/13 02:02:05;;;;;;;18.58;2.33;;;;;;;;;;4970348;28;20034;-66
2023/03/13 02:04:32;;;;;;;16.60;2.40;;;;;;;;;;4968740;28;20109;-65
2023/03/13 02:06:57;;;;;;;;;;;;;;;;;;4969935;28;20027;-67
2023/03/13 02:09:25;;;;;;;9.98;2.03;;;;;;;;;;4968739;28;19972;-65
2023/03/13 02:12:08;;;;;;;14.57;1.90;;;;;;;;;;4969852;28;20019;-68
2023/03/13 02:14:35;;;;;;;15.13;2.30;;;;;;;;;;4969848;28;20027;-67
2023/03/13 02:17:00;;;;;;;16.40;2.42;;;;;;;;;;4968388;28;20493;-68
2023/03/13 02:19:34;;;;;;;9.73;1.70;;;;;;;;;;4971625;28;20106;-67
2023/03/13 02:22:13;;;;;;;11.25;1.88;;;;;;;;;;4971078;28;20025;-68
2023/03/13 02:24:41;;;;;;;12.00;1.83;;;;;;;;;;4968505;28;20011;-67
2023/03/13 02:27:07;;;;;;;12.50;2.20;;;;;;;;;;4970117;28;20027;-68
2023/03/13 02:29:32;;;;;;;11.10;1.70;;;;;;;;;;4969062;28;20019;-68
2023/03/13 02:31:57;;;;;;;14.20;2.60;;;;;;;;;;4965516;28;20558;-68
2023/03/13 02:34:24;;;;;;;11.97;1.70;;;;;;;;;;4969566;28;20023;-66
2023/03/13 02:36:50;;;;;;;11.82;2.22;;;;;;;;;;4968082;28;20054;-68
2023/03/13 02:39:17;;;;;;;14.82;2.03;;;;;;;;;;4970703;28;20027;-66
2023/03/13 02:41:43;;;;;;;11.43;2.00;;;;;;;;;;4971884;28;20023;-66
2023/03/13 02:44:09;;;;;;;13.10;2.22;;;;;;;;;;4974191;28;20018;-67
2023/03/13 02:46:44;;;;;;;11.67;2.40;;;;;;;;;;4973239;28;20034;-66
2023/03/13 02:49:19;;;;;;;13.02;1.98;;;;;;;;;;4974864;28;20110;-67
2023/03/13 02:51:45;;;;;;;10.27;1.80;;;;;;;;;;4973231;28;20156;-66
2023/03/13 02:54:13;;;;;;;16.70;2.35;;;;;;;;;;4970908;28;20500;-66
2023/03/13 02:56:40;;;;;;;13.95;2.55;;;;;;;;;;4974336;28;20085;-67
2023/03/13 02:59:06;;;;;;;13.75;1.90;;;;;;;;;;4973842;28;20478;-65
2023/03/13 03:01:31;;;;;;;10.25;1.70;;;;;;;;;;4972619;28;20030;-64
2023/03/13 03:03:57;;;;;;;13.60;2.00;;;;;;;;;;4972613;28;20027;-68
2023/03/13 03:06:22;;;;;;;12.40;2.17;;;;;;;;;;4969554;28;20478;-65
2023/03/13 03:08:47;;;;;;;12.60;2.15;;;;;;;;;;4972009;28;20528;-66
2023/03/13 03:11:12;;;;;;;10.60;1.70;;;;;;;;;;4972631;28;20033;-66
2023/03/13 03:13:37;;;;;;;8.80;1.75;;;;;;;;;;4972698;28;20486;-66
2023/03/13 03:16:09;;;;;;;10.07;2.37;;;;;;;;;;4971299;28;20038;-66
2023/03/13 03:18:35;;;;;;;15.32;2.35;;;;;;;;;;4974360;28;20035;-64
2023/03/13 03:21:01;;;;;;;11.25;2.22;;;;;;;;;;4977200;28;20155;-66
2023/03/13 03:23:26;;;;;;;14.13;1.90;;;;;;;;;;4981828;28;20030;-66
2023/03/13 03:25:51;;;;;;;9.77;1.53;;;;;;;;;;4978652;28;20561;-65
2023/03/13 03:28:16;;;;;;;10.55;1.70;;;;;;;;;;4974881;28;20441;-66
2023/03/13 03:30:41;;;;;;;13.27;2.10;;;;;;;;;;4971861;28;20023;-67
2023/03/13 03:33:07;;;;;;;8.65;1.48;;;;;;;;;;4972897;28;20038;-67
2023/03/13 03:35:33;;;;;;;10.53;1.80;;;;;;;;;;4972167;28;20030;-65
2023/03/13 03:37:58;;;;;;;13.10;2.00;;;;;;;;;;4972565;28;20114;-66
2023/03/13 03:40:23;;;;;;;10.70;2.20;;;;;;;;;;4973568;28;20113;-66
2023/03/13 03:42:49;;;;;;;10.53;1.67;;;;;;;;;;4972884;28;20026;-67
2023/03/13 03:45:14;;;;;;;9.52;1.73;;;;;;;;;;4969536;28;20022;-67
2023/03/13 03:47:39;;;;;;;13.43;1.80;;;;;;;;;;4973204;28;20045;-66
2023/03/13 03:50:06;;;;;;;11.93;1.90;;;;;;;;;;4973105;28;20038;-67
2023/03/13 03:52:31;;;;;;;10.20;1.65;;;;;;;;;;4973258;28;20034;-66
2023/03/13 03:54:56;;;;;;;12.15;2.15;;;;;;;;;;4973141;28;20668;-66
2023/03/13 03:57:22;;;;;;;10.50;1.50;;;;;;;;;;4971722;28;20037;-66
2023/03/13 03:59:47;;;;;;;10.10;1.45;;;;;;;;;;4971155;28;20069;-66
2023/03/13 04:02:12;;;;;;;10.83;1.80;;;;;;;;;;4972376;28;20022;-66
2023/03/13 04:04:37;;;;;;;8.52;1.80;;;;;;;;;;4972048;28;20492;-65
2023/03/13 04:07:03;;;;;;;13.32;1.73;;;;;;;;;;4972699;28;20027;-67
2023/03/13 04:09:28;;;;;;;9.67;1.60;;;;;;;;;;4972559;28;20065;-66
2023/03/13 04:11:53;;;;;;;11.07;1.97;;;;;;;;;;4972985;28;20023;-67
2023/03/13 04:14:18;;;;;;;12.83;2.17;;;;;;;;;;4969386;28;20024;-68
2023/03/13 04:16:43;;;;;;;14.07;2.00;;;;;;;;;;4971498;28;20023;-67
2023/03/13 04:19:08;;;;;;;12.55;2.05;;;;;;;;;;4973352;28;20049;-67
2023/03/13 04:21:34;;;;;;;13.70;1.95;;;;;;;;;;4972342;28;20386;-68
2023/03/13 04:23:59;;;;;;;11.88;1.70;;;;;;;;;;4970118;28;20106;-67
2023/03/13 04:26:24;;;;;;;10.05;1.88;;;;;;;;;;4972535;28;20073;-67
2023/03/13 04:28:49;;;;;;;10.23;1.55;;;;;;;;;;4970450;28;20402;-66
2023/03/13 04:31:15;;;;;;;12.13;1.90;;;;;;;;;;4969529;28;20018;-67
2023/03/13 04:33:40;;;;;;;9.87;1.50;;;;;;;;;;4971816;28;20054;-68
2023/03/13 04:36:05;;;;;;;13.60;2.10;;;;;;;;;;4970369;28;20092;-66
2023/03/13 04:38:30;;;;;;;10.40;1.83;;;;;;;;;;4972792;28;20037;-68
2023/03/13 04:40:55;;;;;;;10.40;1.85;;;;;;;;;;4972134;28;20493;-66
2023/03/13 04:43:21;;;;;;;16.03;1.83;;;;;;;;;;4973834;28;20026;-66
2023/03/13 04:45:46;;;;;;;15.75;2.10;;;;;;;;;;4970396;28;20035;-69
2023/03/13 04:48:11;;;;;;;13.88;1.80;;;;;;;;;;4970977;28;20426;-67
2023/03/13 04:50:36;;;;;;;13.83;2.40;;;;;;;;;;4970573;28;20126;-66
2023/03/13 04:53:01;;;;;;;16.37;2.03;;;;;;;;;;4972642;28;20395;-66
2023/03/13 04:55:26;;;;;;;12.60;2.10;;;;;;;;;;4971201;28;20486;-67
2023/03/13 04:57:52;;;;;;;11.57;1.90;;;;;;;;;;4970553;28;20023;-69
2023/03/13 05:00:17;;;;;;;13.82;1.92;;;;;;;;;;4970292;28;20026;-67
2023/03/13 05:02:42;;;;;;;12.90;2.03;;;;;;;;;;4971646;28;20038;-67
2023/03/13 05:05:07;;;;;;;11.98;2.00;;;;;;;;;;4970501;28;20026;-67
2023/03/13 05:07:32;;;;;;;17.43;2.13;;;;;;;;;;4969479;28;20031;-66
2023/03/13 05:09:58;;;;;;;7.73;1.60;;;;;;;;;;4970772;28;20402;-67
2023/03/13 05:12:23;;;;;;;12.63;1.77;;;;;;;;;;4966155;28;20031;-67
2023/03/13 05:14:49;;;;;;;10.73;1.70;;;;;;;;;;4970042;28;20427;-66
2023/03/13 05:17:14;;;;;;;11.43;2.53;;;;;;;;;;4984694;28;20435;-66
2023/03/13 05:19:39;;;;;;;15.80;2.28;;;;;;;;;;4968514;28;20110;-67
2023/03/13 05:22:04;;;;;;;13.20;1.88;;;;;;;;;;4966171;28;20023;-65
2023/03/13 05:24:29;;;;;;;14.27;2.17;;;;;;;;;;4968540;28;20378;-67
2023/03/13 05:26:55;;;;;;;22.10;2.83;;;;;;;;;;4969839;28;20037;-66
2023/03/13 05:29:20;;;;;;;10.50;2.00;;;;;;;;;;4971475;28;20065;-66
2023/03/13 05:31:45;;;;;;;15.47;2.73;;;;;;;;;;4965644;28;20130;-66
2023/03/13 05:34:10;;;;;;;14.93;2.20;;;;;;;;;;4967138;28;20058;-64
2023/03/13 05:36:35;;;;;;;16.93;2.63;;;;;;;;;;4965368;28;20031;-67
2023/03/13 05:39:00;;;;;;;11.65;2.25;;;;;;;;;;4966576;28;20454;-65
2023/03/13 05:41:26;;;;;;;12.48;2.63;;;;;;;;;;4966578;28;20564;-67
2023/03/13 05:43:51;;;;;;;12.90;2.88;;;;;;;;;;4966096;28;20026;-66
2023/03/13 05:46:16;;;;;;;15.43;3.00;;;;;;;;;;4965008;28;20035;-68
2023/03/13 05:48:41;;;;;;;14.52;2.90;;;;;;;;;;4966815;28;20113;-66
2023/03/13 05:51:07;;;;;;;15.57;3.17;;;;;;;;;;4968212;28;20807;-65
2023/03/13 05:53:32;;;;;;;10.75;3.22;;;;;;;;;;4963163;28;20114;-65
2023/03/13 05:55:57;;;;;;;12.93;2.92;;;;;;;;;;4966548;28;20474;-67
2023/03/13 05:58:22;;;;;;;13.30;3.27;;;;;;;;;;4967393;28;20078;-66
2023/03/13 06:00:47;;;;;;;11.83;3.13;;;;;;;;;;4966482;28;20750;-67
2023/03/13 06:03:12;;;;;;;16.57;4.10;;;;;;;;;;4965521;28;20133;-66
2023/03/13 06:05:37;;;;;;;14.95;3.17;;;;;;;;;;4963301;28;20027;-66
2023/03/13 06:08:03;;;;;;;16.23;3.80;;;;;;;;;;4965433;28;20052;-67
2023/03/13 06:10:28;;;;;;;10.17;3.47;;;;;;;;;;4967444;28;20031;-66
2023/03/13 06:12:54;;;;;;;12.97;3.43;;;;;;;;;;4971357;28;20352;-62
2023/03/13 06:15:19;;;;;;;14.55;3.88;;;;;;;;;;4977495;28;20031;-65
2023/03/13 06:17:44;;;;;;;15.47;4.63;;;;;;;;;;4971728;28;20042;-64
2023/03/13 06:20:10;;;;;;;15.35;4.68;;;;;;;;;;4979226;28;20065;-64
2023/03/13 06:22:35;;;;;;;16.27;4.90;;;;;;;;;;4977615;28;20030;-64
2023/03/13 06:25:00;;;;;;;11.90;4.53;;;;;;;;;;4975637;28;20030;-67
2023/03/13 06:27:25;;;;;;;15.30;4.50;;;;;;;;;;4971787;28;20427;-65
2023/03/13 06:29:51;;;;;;;17.88;5.70;;;;;;;;;;4971538;28;20023;-68
2023/03/13 06:32:16;;;;;;;14.73;5.70;;;;;;;;;;4968960;28;20034;-66
2023/03/13 06:34:41;;;;;;;15.90;5.70;;;;;;;;;;4969485;28;20090;-66
2023/03/13 06:37:06;;;;;;;15.25;5.28;;;;;;;;;;4970705;28;20096;-67
2023/03/13 06:39:31;;;;;;;16.40;5.50;;;;;;;;;;4970018;28;20019;-66
2023/03/13 06:41:56;;;;;;;13.80;5.07;;;;;;;;;;4970902;28;20035;-67
2023/03/13 06:44:21;;;;;;;16.65;5.63;;;;;;;;;;4970730;28;20661;-64
2023/03/13 06:46:47;;;;;;;16.27;5.35;;;;;;;;;;4970171;28;20181;-67
2023/03/13 06:49:12;;;;;;;9.70;4.80;;;;;;;;;;4968176;28;20057;-66
2023/03/13 06:51:37;;;;;;;11.65;4.80;;;;;;;;;;4969117;28;20027;-68
2023/03/13 06:54:02;;;;;;;14.87;4.73;;;;;;;;;;4970886;28;20058;-66
2023/03/13 06:56:27;;;;;;;10.93;4.10;;;;;;;;;;4970202;28;20023;-67
2023/03/13 06:58:53;;;;;;;10.47;4.23;;;;;;;;;;4970005;28;20996;-68
2023/03/13 07:01:18;;;;;;;11.87;4.67;;;;;;;;;;4970914;28;20438;-65
2023/03/13 07:03:43;;;;;;;14.77;4.87;;;;;;;;;;4970434;28;20102;-66
2023/03/13 07:06:09;;;;;;;12.02;4.65;;;;;;;;;;4965242;28;20065;-67
2023/03/13 07:08:34;;;;;;;14.40;5.00;;;;;;;;;;4974181;28;20050;-66
2023/03/13 07:11:01;;;;;;;13.27;5.10;;;;;;;;;;4970904;28;20022;-65
2023/03/13 07:13:26;;;;;;;12.82;4.75;;;;;;;;;;4969889;28;20126;-66
2023/03/13 07:15:52;;;;;;;12.77;5.22;;;;;;;;;;4965706;28;20031;-67
2023/03/13 07:18:17;;;;;;;10.40;4.40;;;;;;;;;;4968115;28;20545;-66
2023/03/13 07:20:42;;;;;;;12.27;4.40;;;;;;;;;;4958786;28;20030;-66
2023/03/13 07:23:08;;;;;;;11.43;4.30;;;;;;;;;;4965422;28;20027;-67
2023/03/13 07:25:33;;;;;;;11.30;4.15;;;;;;;;;;4965965;28;20478;-66
2023/03/13 07:28:00;;;;;;;11.73;4.33;;;;;;;;;;4967840;28;20010;-66
2023/03/13 07:30:25;;;;;;;8.38;3.50;;;;;;;;;;4968606;28;20023;-68
2023/03/13 07:32:50;;;;;;;8.00;2.27;;;;;;;;;;4968601;28;20030;-65
2023/03/13 07:35:15;;;;;;;7.45;1.92;;;;;;;;;;4969013;28;20562;-66
2023/03/13 07:37:40;;;;;;;8.23;1.70;;;;;;;;;;4967665;28;20674;-65
2023/03/13 07:40:08;;;;;;;7.13;1.90;;;;;;;;;;4969930;28;20526;-67
2023/03/13 07:42:33;;;;;;;9.38;1.73;;;;;;;;;;4969898;28;20042;-65
2023/03/13 07:44:58;;;;;;;7.82;1.85;;;;;;;;;;4970137;28;20023;-65
2023/03/13 07:47:23;;;;;;;8.93;1.67;;;;;;;;;;4968926;28;20085;-67
2023/03/13 07:49:48;;;;;;;9.80;1.88;;;;;;;;;;4970576;28;20101;-67
2023/03/13 07:52:13;;;;;;;7.15;1.88;;;;;;;;;;4968152;28;20594;-67
2023/03/13 07:54:38;;;;;;;7.50;2.30;;;;;;;;;;4968271;28;20026;-68
2023/03/13 07:57:04;;;;;;;10.25;2.28;;;;;;;;;;4969762;28;20042;-67
2023/03/13 07:59:29;;;;;;;7.05;2.60;;;;;;;;;;4971368;28;20103;-66
2023/03/13 08:01:54;;;;;;;11.20;2.53;;;;;;;;;;4968252;28;20126;-66
2023/03/13 08:04:20;;;;;;;12.77;3.10;;;;;;;;;;4970846;28;20121;-66
2023/03/13 08:06:45;;;;;;;9.25;2.13;;;;;;;;;;4970073;28;20422;-65
2023/03/13 08:09:10;;;;;;;9.70;3.60;;;;;;;;;;4968456;28;20086;-64
2023/03/13 08:11:37;;;;;;;12.67;3.70;;;;;;;;;;4970066;28;20513;-66
2023/03/13 08:14:02;;;;;;;;;;;;;;;;;;4970077;28;20027;-67
2023/03/13 08:16:28;;;;;;;9.87;3.63;;;;;;;;;;4970144;28;19929;-65
2023/03/13 08:18:55;;;;;;;11.50;4.40;;;;;;;;;;4969156;28;20483;-65
2023/03/13 08:21:20;;;;;;;;;;;;;;;;;;4970789;28;20031;-65
2023/03/13 08:23:45;;;;;;;12.38;4.55;;;;;;;;;;4969487;28;20211;-66
2023/03/13 08:26:12;;;;;;;10.27;4.20;;;;;;;;;;4964218;28;20092;-65
2023/03/13 08:28:37;;;;;;;13.25;4.90;;;;;;;;;;4968158;28;20053;-67
2023/03/13 08:31:07;;;;;;;11.52;4.35;;;;;;;;;;4968416;28;20113;-65
2023/03/13 08:33:32;;;;;;;9.60;4.32;;;;;;;;;;4966567;28;20442;-66
2023/03/13 08:35:57;;;;;;;11.23;4.10;;;;;;;;;;4969465;28;20038;-65
2023/03/13 08:38:23;;;;;;;8.77;4.10;;;;;;;;;;4972727;28;20034;-67
2023/03/13 08:40:48;;;;;;;8.13;3.85;;;;;;;;;;4968627;28;20093;-66
2023/03/13 08:43:13;;;;;;;9.27;3.83;;;;;;;;;;4973183;28;20479;-68
2023/03/13 08:45:38;;;;;;;9.70;3.55;;;;;;;;;;4965626;28;20121;-66
2023/03/13 08:48:03;;;;;;;12.57;4.67;;;;;;;;;;4968746;28;20085;-66
2023/03/13 08:50:28;;;;;;;8.97;3.50;;;;;;;;;;4969711;28;20411;-64
2023/03/13 08:52:53;;;;;;;9.47;3.40;;;;;;;;;;4967458;28;20027;-65
2023/03/13 08:55:19;;;;;;;9.10;3.40;;;;;;;;;;4969127;28;20071;-65
2023/03/13 08:57:44;;;;;;;8.13;3.33;;;;;;;;;;4969362;28;20037;-66
2023/03/13 09:00:10;;;;;;;9.73;3.58;;;;;;;;;;4967291;28;20022;-67
2023/03/13 09:02:35;;;;;;;7.63;2.70;;;;;;;;;;4966997;28;20015;-64
2023/03/13 09:05:00;;;;;;;5.43;1.52;;;;;;;;;;4971523;28;20317;-66
2023/03/13 09:07:25;;;;;;;7.38;1.50;;;;;;;;;;4967962;28;20031;-64
2023/03/13 09:09:50;;;;;;;4.60;1.30;;;;;;;;;;4970599;28;20058;-67
2023/03/13 09:12:15;;;;;;;6.03;1.40;;;;;;;;;;4970405;28;20446;-69
2023/03/13 09:14:40;;;;;;;7.45;1.38;;;;;;;;;;4971848;28;20019;-67
2023/03/13 09:17:06;;;;;;;3.72;1.33;;;;;;;;;;4974428;28;20038;-66
2023/03/13 09:19:31;;;;;;;5.57;1.38;;;;;;;;;;4973881;28;20450;-66
2023/03/13 09:21:56;;;;;;;4.57;1.10;;;;;;;;;;4972073;28;20479;-67
2023/03/13 09:24:22;;;;;;;4.23;1.10;;;;;;;;;;4972158;28;20031;-66
2023/03/13 09:26:47;;;;;;;6.85;1.20;;;;;;;;;;4972339;28;20057;-67
2023/03/13 09:29:12;;;;;;;4.68;1.00;;;;;;;;;;4972270;28;20026;-67
2023/03/13 09:31:37;;;;;;;5.30;1.05;;;;;;;;;;4972221;28;20089;-68
2023/03/13 09:34:02;;;;;;;4.95;1.10;;;;;;;;;;4970773;28;20023;-67
2023/03/13 09:36:28;;;;;;;3.40;1.00;;;;;;;;;;4971668;28;20027;-67
2023/03/13 09:38:54;;;;;;;3.57;0.90;;;;;;;;;;4970666;28;20439;-67
2023/03/13 09:41:30;;;;;;;4.03;1.05;;;;;;;;;;4972099;28;20030;-68
2023/03/13 09:44:14;;;;;;;5.53;1.38;;;;;;;;;;4969965;28;20398;-66
2023/03/13 09:46:44;;;;;;;3.80;1.10;;;;;;;;;;4972111;28;20022;-65
2023/03/13 09:49:16;;;;;;;5.05;1.20;;;;;;;;;;4970846;28;20545;-65
2023/03/13 09:51:43;;;;;;;5.50;1.00;;;;;;;;;;4970457;28;20545;-66
2023/03/13 09:54:23;;;;;;;5.20;1.30;;;;;;;;;;4970934;28;20521;-65
2023/03/13 09:56:53;;;;;;;4.38;1.10;;;;;;;;;;4970822;28;20042;-66
2023/03/13 09:59:21;;;;;;;5.30;1.10;;;;;;;;;;4971768;28;20106;-67
2023/03/13 10:01:47;;;;;;;3.63;1.00;;;;;;;;;;4971999;28;20121;-66
2023/03/13 10:04:18;;;;;;;4.38;1.00;;;;;;;;;;4971697;28;20503;-65
2023/03/13 10:06:44;;;;;;;4.32;1.20;;;;;;;;;;4971914;28;20105;-65
2023/03/13 10:09:25;;;;;;;5.07;1.10;;;;;;;;;;4973102;28;20031;-66
2023/03/13 10:11:54;;;;;;;4.53;1.20;;;;;;;;;;4971642;28;20101;-68
2023/03/13 10:14:27;;;;;;;4.70;1.17;;;;;;;;;;4969665;28;20106;-66
2023/03/13 10:17:00;;;;;;;4.43;1.10;;;;;;;;;;4968966;28;20042;-66
2023/03/13 10:19:29;;;;;;;4.43;1.08;;;;;;;;;;4966357;28;20037;-68
2023/03/13 10:21:55;;;;;;;3.85;1.10;;;;;;;;;;4969537;28;20033;-74
2023/03/13 10:24:25;;;;;;;4.60;1.00;;;;;;;;;;4970025;28;20026;-70
2023/03/13 10:26:51;;;;;;;4.97;1.00;;;;;;;;;;4970793;28;20478;-69
2023/03/13 10:29:19;;;;;;;4.07;0.90;;;;;;;;;;4965880;28;20040;-65
2023/03/13 10:31:47;;;;;;;3.35;0.80;;;;;;;;;;4962139;28;20258;-66
2023/03/13 10:34:13;;;;;;;2.85;0.70;;;;;;;;;;4966761;28;20023;-67
2023/03/13 10:36:42;;;;;;;2.40;0.60;;;;;;;;;;4964877;28;20043;-66
2023/03/13 10:39:07;;;;;;;1.98;0.68;;;;;;;;;;4965305;28;20526;-66
2023/03/13 10:41:34;;;;;;;7.00;2.42;;;;;;;;;;4965165;28;20113;-67
2023/03/13 10:44:03;;;;;;;8.07;2.80;;;;;;;;;;4967580;28;20019;-68
2023/03/13 10:46:33;;;;;;;7.72;3.30;;;;;;;;;;4963293;28;20410;-67
2023/03/13 10:49:02;;;;;;;6.22;2.83;;;;;;;;;;4959660;28;20019;-66
2023/03/13 10:51:34;;;;;;;6.35;2.30;;;;;;;;;;4964979;28;20481;-67
2023/03/13 10:53:59;;;;;;;5.70;1.92;;;;;;;;;;4964112;28;20041;-67
2023/03/13 10:56:28;;;;;;;4.38;1.20;;;;;;;;;;4965428;28;20031;-67
2023/03/13 10:58:53;;;;;;;2.88;0.80;;;;;;;;;;4964817;28;20019;-65
2023/03/13 11:01:23;;;;;;;4.37;0.80;;;;;;;;;;4965641;28;20062;-66
2023/03/13 11:03:49;;;;;;;2.25;0.73;;;;;;;;;;4965010;28;20050;-66
2023/03/13 11:06:31;;;;;;;3.72;0.80;;;;;;;;;;4966951;28;20696;-66
2023/03/13 11:08:57;;;;;;;3.47;0.80;;;;;;;;;;4968433;28;20035;-66
2023/03/13 11:11:26;;;;;;;2.17;0.60;;;;;;;;;;4969357;28;20037;-65
2023/03/13 11:13:51;;;;;;;1.38;0.50;;;;;;;;;;4962141;28;20031;-68
2023/03/13 11:16:18;;;;;;;1.77;0.63;;;;;;;;;;4969469;28;20612;-66
2023/03/13 11:18:44;;;;;;;1.83;0.60;;;;;;;;;;4972891;28;20026;-66
2023/03/13 11:21:15;;;;;;;2.90;0.70;;;;;;;;;;4970336;28;20031;-66
2023/03/13 11:23:44;;;;;;;3.17;0.70;;;;;;;;;;4969460;28;20037;-66
2023/03/13 11:26:21;;;;;;;2.40;0.70;;;;;;;;;;4968477;28;20031;-68
2023/03/13 11:28:53;;;;;;;2.53;0.80;;;;;;;;;;4965297;28;20022;-68
2023/03/13 11:31:28;;;;;;;3.72;0.88;;;;;;;;;;4968337;28;20030;-68
2023/03/13 11:34:12;;;;;;;3.17;0.80;;;;;;;;;;4968656;28;20018;-66
2023/03/13 11:36:40;;;;;;;2.60;0.70;;;;;;;;;;4968024;28;20027;-66
2023/03/13 11:39:16;;;;;;;2.83;0.77;;;;;;;;;;4967031;28;20054;-66
2023/03/13 11:41:51;;;;;;;2.80;0.80;;;;;;;;;;4967627;28;20025;-66
2023/03/13 11:44:35;;;;;;;3.97;0.98;;;;;;;;;;4968112;28;20030;-68
2023/03/13 11:47:19;;;;;;;3.00;0.70;;;;;;;;;;4969181;28;20035;-68
2023/03/13 11:49:44;;;;;;;;;;;;;;;;;;4966867;28;20713;-68
2023/03/13 11:52:15;;;;;;;2.28;0.80;;;;;;;;;;4965592;28;20687;-67
2023/03/13 11:54:40;;;;;;;3.85;0.80;;;;;;;;;;4963231;28;20109;-65
2023/03/13 11:57:14;;;;;;;2.78;0.70;;;;;;;;;;4970062;28;20065;-66
2023/03/13 11:59:58;;;;;;;2.25;0.80;;;;;;;;;;4971168;28;20043;-65
2023/03/13 12:02:29;;;;;;;3.65;0.75;;;;;;;;;;4972325;28;20027;-67
2023/03/13 12:05:07;;;;;;;2.22;0.65;;;;;;;;;;4978601;28;20038;-67
2023/03/13 12:07:35;;;;;;;2.15;0.70;;;;;;;;;;4979412;28;20145;-65
2023/03/13 12:10:02;;;;;;;2.83;0.70;;;;;;;;;;4978713;28;20022;-65
2023/03/13 12:12:48;;;;;;;1.92;0.60;;;;;;;;;;4975311;28;20031;-67
2023/03/13 12:15:28;;;;;;;3.17;0.73;;;;;;;;;;4969057;28;20047;-66
2023/03/13 12:17:59;;;;;;;2.33;0.70;;;;;;;;;;4963830;28;20066;-65
2023/03/13 12:20:27;;;;;;;2.90;0.70;;;;;;;;;;4971508;28;20035;-67
2023/03/13 12:23:11;;;;;;;1.75;0.60;;;;;;;;;;4970331;28;20039;-66
2023/03/13 12:25:42;;;;;;;2.80;0.70;;;;;;;;;;4969539;28;20031;-66
2023/03/13 12:28:15;;;;;;;2.58;0.80;;;;;;;;;;4968977;28;20070;-66
2023/03/13 12:30:49;;;;;;;3.10;0.80;;;;;;;;;;4969717;28;20023;-67
2023/03/13 12:33:24;;;;;;;2.15;0.77;;;;;;;;;;4969753;28;20391;-66
2023/03/13 12:36:02;;;;;;;2.97;0.90;;;;;;;;;;4963728;28;20034;-64
2023/03/13 12:38:37;;;;;;;3.00;0.77;;;;;;;;;;4966740;28;20027;-63
2023/03/13 12:41:08;;;;;;;4.80;1.10;;;;;;;;;;4966751;28;20034;-64
2023/03/13 12:43:37;;;;;;;3.47;0.80;;;;;;;;;;4963372;28;20023;-63
2023/03/13 12:46:02;;;;;;;3.47;0.77;;;;;;;;;;4964545;28;20449;-65
2023/03/13 12:48:43;;;;;;;2.33;0.70;;;;;;;;;;4968486;28;20117;-66
2023/03/13 12:51:15;;;;;;;3.08;0.80;;;;;;;;;;4964754;28;20034;-67
2023/03/13 12:53:43;;;;;;;2.10;0.70;;;;;;;;;;4968109;28;20031;-65
2023/03/13 12:56:14;;;;;;;2.47;0.68;;;;;;;;;;4965889;28;20397;-67
2023/03/13 12:58:44;;;;;;;3.20;0.70;;;;;;;;;;4965215;28;20037;-66
2023/03/13 13:01:13;;;;;;;2.17;0.70;;;;;;;;;;4968742;28;20778;-66
2023/03/13 13:03:57;;;;;;;2.92;0.80;;;;;;;;;;4968447;28;20031;-66
2023/03/13 13:06:22;;;;;;;2.03;0.60;;;;;;;;;;4968573;28;20022;-68
2023/03/13 13:08:53;;;;;;;2.42;0.70;;;;;;;;;;4968779;28;20037;-67
2023/03/13 13:11:33;;;;;;;1.80;0.60;;;;;;;;;;4965814;28;20027;-66
2023/03/13 13:13:59;;;;;;;2.30;0.80;;;;;;;;;;4965769;28;20596;-66
2023/03/13 13:16:25;;;;;;;3.58;0.68;;;;;;;;;;4965344;28;20022;-66
2023/03/13 13:18:51;;;;;;;2.60;0.80;;;;;;;;;;4968837;28;20053;-67
2023/03/13 13:21:17;;;;;;;2.80;0.70;;;;;;;;;;4970155;28;20037;-66
2023/03/13 13:23:45;;;;;;;1.90;0.70;;;;;;;;;;4970069;28;20019;-67
2023/03/13 13:26:29;;;;;;;2.28;0.70;;;;;;;;;;4969430;28;20033;-67
2023/03/13 13:29:14;;;;;;;2.47;0.80;;;;;;;;;;4967330;28;20027;-66
2023/03/13 13:31:55;;;;;;;2.83;0.65;;;;;;;;;;4951604;28;20057;-67
2023/03/13 13:34:43;;;;;;;2.88;0.80;;;;;;;;;;4964210;28;20394;-66
2023/03/13 13:37:12;;;;;;;2.08;0.60;;;;;;;;;;4968919;28;20046;-68
2023/03/13 13:39:48;;;;;;;3.47;0.90;;;;;;;;;;4970399;28;20486;-66
2023/03/13 13:42:44;;;;;;;4.18;0.70;;;;;;;;;;4967976;28;20030;-67
2023/03/13 13:45:15;;;;;;;4.13;0.90;;;;;;;;;;4953547;28;20119;-69
2023/03/13 13:47:45;;;;;;;4.78;0.82;;;;;;;;;;4969601;28;20076;-68
2023/03/13 13:50:20;;;;;;;4.68;0.80;;;;;;;;;;4965666;28;20532;-66
2023/03/13 13:52:46;;;;;;;3.70;0.60;;;;;;;;;;4970505;28;20022;-67
2023/03/13 13:55:38;;;;;;;2.55;0.70;;;;;;;;;;4971542;28;20033;-67
2023/03/13 13:58:05;;;;;;;2.67;0.90;;;;;;;;;;4968175;28;20031;-65
2023/03/13 14:00:35;;;;;;;3.83;0.88;;;;;;;;;;4973320;28;20434;-67
2023/03/13 14:03:00;;;;;;;2.65;0.77;;;;;;;;;;4971826;28;20035;-67
2023/03/13 14:05:27;;;;;;;2.50;0.60;;;;;;;;;;4966819;28;20101;-68
2023/03/13 14:08:11;;;;;;;3.75;0.80;;;;;;;;;;4960643;28;20035;-68
2023/03/13 14:10:45;;;;;;;3.63;0.80;;;;;;;;;;4965701;28;20026;-68
2023/03/13 14:13:20;;;;;;;2.30;0.70;;;;;;;;;;4967534;28;20027;-67
2023/03/13 14:15:53;;;;;;;4.18;0.77;;;;;;;;;;4965955;28;20368;-69
2023/03/13 14:18:28;;;;;;;2.50;0.80;;;;;;;;;;4970156;28;20062;-68
2023/03/13 14:21:00;;;;;;;3.22;0.80;;;;;;;;;;4967828;28;20153;-66
2023/03/13 14:23:42;;;;;;;2.60;0.77;;;;;;;;;;4973081;28;20022;-66
2023/03/13 14:26:28;;;;;;;2.28;0.60;;;;;;;;;;4981277;28;20026;-67
2023/03/13 14:28:53;;;;;;;3.92;0.77;;;;;;;;;;4963039;28;20394;-67
2023/03/13 14:31:22;;;;;;;3.17;0.80;;;;;;;;;;4970247;28;20023;-67
2023/03/13 14:33:48;;;;;;;2.42;0.70;;;;;;;;;;4967307;28;20027;-67
2023/03/13 14:36:13;;;;;;;3.28;1.00;;;;;;;;;;4963156;28;21013;-67
2023/03/13 14:38:39;;;;;;;3.38;0.77;;;;;;;;;;4970440;28;20031;-66
2023/03/13 14:41:04;;;;;;;2.88;1.00;;;;;;;;;;4977755;28;20037;-67